createdAt,value
2018-01-23T00:01:20.868Z,13.17
2018-01-23T00:03:47.055Z,7.17
2018-01-23T00:06:13.237Z,9.70
2018-01-23T00:08:39.389Z,11.53
2018-01-23T00:11:05.552Z,12.60
2018-01-23T00:13:31.781Z,9.17
2018-01-23T00:15:57.972Z,12.27
2018-01-23T00:18:24.123Z,9.33
2018-01-23T00:20:50.411Z,12.23
2018-01-23T00:23:16.631Z,12.90
2018-01-23T00:25:42.793Z,11.93
2018-01-23T00:28:08.932Z,11.73
2018-01-23T00:30:35.216Z,13.00
2018-01-23T00:33:01.428Z,6.90
2018-01-23T00:35:27.586Z,14.13
2018-01-23T00:37:53.746Z,12.13
2018-01-23T00:40:19.903Z,11.57
2018-01-23T00:42:46.184Z,13.87
2018-01-23T00:45:12.391Z,13.67
2018-01-23T00:47:38.527Z,12.83
2018-01-23T00:50:04.683Z,10.23
2018-01-23T00:52:30.865Z,9.30
2018-01-23T00:54:57.023Z,10.17
2018-01-23T00:57:23.177Z,10.47
2018-01-23T00:59:49.350Z,16.57
2018-01-23T01:02:15.484Z,12.47
2018-01-23T01:04:41.806Z,8.60
2018-01-23T01:07:07.970Z,12.73
2018-01-23T01:09:34.154Z,13.77
2018-01-23T01:12:00.322Z,9.27
2018-01-23T01:14:26.550Z,12.53
2018-01-23T01:16:52.755Z,12.33
2018-01-23T01:19:18.903Z,10.63
2018-01-23T01:21:45.099Z,10.03
2018-01-23T01:24:11.549Z,12.43
2018-01-23T01:26:37.733Z,11.13
2018-01-23T01:29:03.864Z,15.50
2018-01-23T01:31:30.058Z,11.57
2018-01-23T01:33:56.239Z,11.53
2018-01-23T01:36:22.937Z,16.57
2018-01-23T01:38:49.186Z,13.07
2018-01-23T01:41:15.375Z,13.43
2018-01-23T01:43:41.656Z,16.13
2018-01-23T01:46:08.936Z,11.07
2018-01-23T01:48:47.308Z,14.50
2018-01-23T01:51:13.474Z,12.30
2018-01-23T01:53:39.664Z,16.83
2018-01-23T01:56:05.843Z,13.47
2018-01-23T01:58:32.584Z,15.93
2018-01-23T02:00:58.721Z,9.63
2018-01-23T02:03:24.940Z,15.27
2018-01-23T02:05:51.132Z,12.23
2018-01-23T02:08:17.251Z,15.23
2018-01-23T02:10:43.433Z,14.40
2018-01-23T02:13:09.694Z,13.20
2018-01-23T02:15:35.906Z,11.13
2018-01-23T02:18:02.070Z,16.63
2018-01-23T02:20:28.216Z,14.87
2018-01-23T02:22:54.370Z,14.27
2018-01-23T02:25:20.579Z,19.00
2018-01-23T02:27:46.746Z,11.23
2018-01-23T02:30:12.912Z,12.47
2018-01-23T02:32:39.081Z,14.10
2018-01-23T02:35:05.287Z,14.70
2018-01-23T02:37:31.412Z,14.47
2018-01-23T02:39:57.573Z,14.17
2018-01-23T02:42:23.729Z,12.00
2018-01-23T02:44:50.415Z,9.63
2018-01-23T02:47:16.656Z,10.30
2018-01-23T02:49:42.788Z,12.97
2018-01-23T02:52:08.940Z,13.07
2018-01-23T02:54:35.110Z,14.87
2018-01-23T02:57:01.292Z,9.10
2018-01-23T02:59:27.450Z,8.53
2018-01-23T03:01:53.664Z,11.63
2018-01-23T03:04:20.549Z,13.43
2018-01-23T03:06:46.680Z,11.33
2018-01-23T03:09:12.834Z,12.13
2018-01-23T03:11:39.038Z,14.37
2018-01-23T03:14:05.259Z,14.30
2018-01-23T03:16:31.461Z,15.23
2018-01-23T03:18:57.631Z,7.83
2018-01-23T03:21:23.833Z,9.83
2018-01-23T03:23:49.999Z,10.97
2018-01-23T03:26:16.357Z,11.70
2018-01-23T03:28:42.550Z,15.23
2018-01-23T03:31:08.695Z,15.13
2018-01-23T03:33:34.914Z,14.37
2018-01-23T03:36:01.115Z,10.57
2018-01-23T03:38:27.275Z,15.33
2018-01-23T03:40:53.450Z,12.70
2018-01-23T03:43:19.665Z,11.60
2018-01-23T03:45:45.836Z,9.00
2018-01-23T03:48:11.980Z,12.07
2018-01-23T03:50:38.137Z,10.83
2018-01-23T03:53:04.292Z,10.60
2018-01-23T03:55:30.500Z,15.63
2018-01-23T03:57:56.735Z,10.43
2018-01-23T04:00:22.873Z,12.53
2018-01-23T04:02:49.017Z,12.27
2018-01-23T04:05:15.264Z,9.27
2018-01-23T04:07:41.602Z,11.93
2018-01-23T04:10:07.871Z,12.33
2018-01-23T04:12:34.100Z,13.63
2018-01-23T04:15:00.293Z,15.70
2018-01-23T04:17:26.473Z,15.20
2018-01-23T04:19:52.719Z,15.80
2018-01-23T04:22:18.862Z,9.70
2018-01-23T04:24:45.097Z,7.97
2018-01-23T04:27:12.048Z,12.60
2018-01-23T04:29:38.436Z,12.47
2018-01-23T04:32:04.594Z,13.87
2018-01-23T04:34:30.889Z,12.60
2018-01-23T04:36:57.605Z,9.03
2018-01-23T04:39:23.921Z,10.07
2018-01-23T04:41:50.070Z,11.30
2018-01-23T04:44:16.280Z,12.13
2018-01-23T04:46:42.483Z,10.87
2018-01-23T04:49:08.639Z,13.20
2018-01-23T04:51:34.802Z,10.67
2018-01-23T04:54:01.010Z,12.43
2018-01-23T04:56:27.216Z,11.03
2018-01-23T04:58:53.472Z,10.57
2018-01-23T05:01:19.596Z,16.40
2018-01-23T05:03:45.817Z,14.80
2018-01-23T05:06:12.068Z,9.37
2018-01-23T05:08:38.209Z,9.13
2018-01-23T05:11:04.346Z,14.50
2018-01-23T05:13:30.523Z,12.53
2018-01-23T05:15:56.716Z,10.10
2018-01-23T05:18:22.865Z,12.03
2018-01-23T05:20:49.134Z,11.77
2018-01-23T05:23:15.281Z,15.47
2018-01-23T05:25:42.466Z,13.10
2018-01-23T05:28:08.680Z,11.20
2018-01-23T05:30:34.844Z,14.57
2018-01-23T05:33:00.991Z,13.37
2018-01-23T05:35:27.250Z,11.73
2018-01-23T05:37:53.379Z,11.77
2018-01-23T05:40:19.543Z,15.23
2018-01-23T05:42:45.728Z,11.87
2018-01-23T05:45:11.976Z,16.87
2018-01-23T05:47:38.134Z,10.47
2018-01-23T05:50:04.295Z,10.67
2018-01-23T05:52:30.577Z,8.50
2018-01-23T05:54:56.793Z,12.83
2018-01-23T05:57:22.969Z,10.30
2018-01-23T05:59:49.180Z,14.60
2018-01-23T06:02:15.398Z,16.07
2018-01-23T06:04:41.716Z,14.13
2018-01-23T06:07:07.927Z,16.80
2018-01-23T06:09:34.950Z,15.43
2018-01-23T06:12:01.176Z,12.13
2018-01-23T06:14:27.604Z,10.93
2018-01-23T06:16:53.757Z,14.77
2018-01-23T06:19:20.817Z,11.30
2018-01-23T06:21:47.201Z,15.17
2018-01-23T06:24:13.543Z,14.20
2018-01-23T06:26:39.777Z,16.00
2018-01-23T06:29:06.153Z,13.20
2018-01-23T06:31:32.421Z,15.20
2018-01-23T06:33:58.663Z,15.30
2018-01-23T06:36:24.811Z,17.93
2018-01-23T06:38:50.980Z,14.90
2018-01-23T06:41:17.245Z,13.60
2018-01-23T06:43:43.508Z,13.27
2018-01-23T06:46:09.733Z,15.70
2018-01-23T06:48:35.940Z,16.37
2018-01-23T06:51:02.102Z,17.80
2018-01-23T06:53:28.260Z,19.43
2018-01-23T06:55:54.516Z,12.60
2018-01-23T06:58:20.842Z,17.67
2018-01-23T07:00:47.044Z,15.03
2018-01-23T07:03:13.187Z,15.33
2018-01-23T07:05:39.417Z,12.93
2018-01-23T07:08:05.620Z,16.97
2018-01-23T07:10:31.785Z,21.43
2018-01-23T07:12:57.971Z,20.07
2018-01-23T07:15:24.578Z,14.77
2018-01-23T07:17:50.742Z,15.57
2018-01-23T07:20:17.006Z,16.17
2018-01-23T07:22:43.170Z,15.20
2018-01-23T07:25:09.377Z,21.20
2018-01-23T07:27:35.725Z,15.43
2018-01-23T07:30:01.901Z,14.40
2018-01-23T07:32:28.066Z,16.00
2018-01-23T07:34:54.391Z,14.17
2018-01-23T07:37:20.601Z,18.63
2018-01-23T07:39:46.759Z,19.07
2018-01-23T07:42:12.952Z,17.00
2018-01-23T07:44:39.298Z,14.93
2018-01-23T07:47:05.545Z,11.97
2018-01-23T07:49:31.749Z,15.53
2018-01-23T07:51:57.969Z,15.63
2018-01-23T07:54:25.549Z,15.53
2018-01-23T07:56:52.711Z,13.47
2018-01-23T07:59:18.926Z,14.27
2018-01-23T08:01:45.254Z,11.57
2018-01-23T08:04:11.439Z,14.43
2018-01-23T08:06:37.833Z,18.20
2018-01-23T08:09:04.130Z,9.20
2018-01-23T08:11:30.298Z,14.87
2018-01-23T08:13:56.537Z,17.27
2018-01-23T08:16:22.746Z,12.10
2018-01-23T08:18:48.915Z,14.03
2018-01-23T08:21:15.464Z,11.37
2018-01-23T08:23:41.665Z,13.03
2018-01-23T08:26:07.947Z,13.03
2018-01-23T08:28:34.242Z,14.93
2018-01-23T08:31:00.407Z,11.07
2018-01-23T08:33:26.657Z,14.87
2018-01-23T08:35:52.915Z,12.40
2018-01-23T08:38:19.084Z,15.13
2018-01-23T08:40:45.268Z,13.87
2018-01-23T08:43:11.466Z,15.73
2018-01-23T08:45:37.898Z,10.87
2018-01-23T08:48:04.158Z,11.33
2018-01-23T08:50:30.338Z,12.97
2018-01-23T08:52:56.523Z,12.70
2018-01-23T08:55:22.713Z,11.17
2018-01-23T08:57:48.980Z,12.10
2018-01-23T09:00:15.219Z,10.60
2018-01-23T09:02:41.392Z,10.13
2018-01-23T09:05:08.109Z,9.03
2018-01-23T09:07:34.343Z,11.60
2018-01-23T09:10:00.555Z,13.07
2018-01-23T09:12:26.706Z,12.77
2018-01-23T09:14:53.027Z,11.93
2018-01-23T09:17:19.324Z,11.07
2018-01-23T09:19:45.520Z,10.70
2018-01-23T09:22:11.742Z,6.30
2018-01-23T09:24:37.983Z,9.67
2018-01-23T09:27:04.217Z,12.80
2018-01-23T09:29:30.473Z,12.57
2018-01-23T09:31:56.646Z,10.87
2018-01-23T09:34:22.851Z,9.33
2018-01-23T09:36:49.101Z,12.47
2018-01-23T09:39:15.378Z,8.80
2018-01-23T09:41:41.618Z,8.87
2018-01-23T09:44:07.795Z,10.33
2018-01-23T09:46:34.041Z,7.90
2018-01-23T09:49:00.225Z,10.57
2018-01-23T09:51:26.428Z,12.27
2018-01-23T09:53:52.660Z,8.33
2018-01-23T09:56:18.892Z,6.73
2018-01-23T09:58:45.135Z,7.90
2018-01-23T10:01:11.318Z,9.43
2018-01-23T10:03:37.515Z,8.10
2018-01-23T10:06:03.761Z,7.33
2018-01-23T10:08:29.939Z,7.50
2018-01-23T10:10:56.121Z,9.93
2018-01-23T10:13:22.317Z,9.57
2018-01-23T10:15:48.566Z,10.30
2018-01-23T10:18:15.290Z,9.00
2018-01-23T10:20:41.591Z,11.77
2018-01-23T10:23:08.057Z,7.23
2018-01-23T10:25:34.346Z,9.17
2018-01-23T10:28:00.577Z,11.10
2018-01-23T10:30:26.798Z,5.67
2018-01-23T10:32:52.992Z,8.90
2018-01-23T10:35:19.268Z,6.33
2018-01-23T10:37:45.457Z,7.57
2018-01-23T10:40:11.665Z,4.77
2018-01-23T10:42:37.829Z,8.33
2018-01-23T10:45:04.069Z,9.53
2018-01-23T10:47:30.268Z,9.20
2018-01-23T10:49:56.433Z,10.60
2018-01-23T10:52:22.636Z,7.30
2018-01-23T10:54:49.145Z,8.03
2018-01-23T10:57:15.391Z,11.00
2018-01-23T10:59:41.564Z,7.50
2018-01-23T11:02:07.758Z,9.10
2018-01-23T11:04:34.369Z,9.47
2018-01-23T11:07:00.680Z,8.87
2018-01-23T11:09:26.912Z,8.27
2018-01-23T11:11:53.071Z,9.33
2018-01-23T11:14:19.253Z,12.23
2018-01-23T11:16:45.620Z,10.80
2018-01-23T11:19:11.760Z,11.97
2018-01-23T11:21:37.913Z,10.77
2018-01-23T11:24:04.143Z,10.10
2018-01-23T11:26:30.838Z,12.10
2018-01-23T11:28:57.119Z,12.47
2018-01-23T11:31:23.305Z,10.90
2018-01-23T11:33:49.473Z,11.97
2018-01-23T11:36:15.667Z,10.43
2018-01-23T11:38:41.840Z,9.50
2018-01-23T11:41:08.006Z,12.33
2018-01-23T11:43:34.217Z,10.27
2018-01-23T11:46:00.425Z,8.57
2018-01-23T11:48:35.290Z,15.10
2018-01-23T11:51:10.413Z,6.30
2018-01-23T11:53:36.833Z,9.53
2018-01-23T11:56:03.103Z,9.10
2018-01-23T11:58:29.319Z,10.80
2018-01-23T12:00:55.533Z,11.90
2018-01-23T12:03:21.744Z,7.93
2018-01-23T12:05:47.954Z,6.50
2018-01-23T12:08:14.132Z,10.23
2018-01-23T12:10:40.330Z,9.13
2018-01-23T12:13:06.498Z,11.30
2018-01-23T12:15:32.728Z,6.63
2018-01-23T12:17:58.946Z,11.07
2018-01-23T12:20:25.156Z,9.37
2018-01-23T12:22:51.353Z,9.60
2018-01-23T12:25:17.585Z,10.50
2018-01-23T12:27:43.827Z,9.20
2018-01-23T12:30:11.309Z,4.47
2018-01-23T12:32:37.539Z,9.37
2018-01-23T12:35:03.781Z,11.30
2018-01-23T12:37:30.047Z,8.07
2018-01-23T12:39:56.249Z,8.37
2018-01-23T12:42:22.400Z,8.73
2018-01-23T12:44:48.558Z,11.77
2018-01-23T12:47:14.852Z,8.50
2018-01-23T12:49:41.002Z,11.50
2018-01-23T12:52:09.845Z,9.33
2018-01-23T12:54:36.079Z,10.23
2018-01-23T12:57:02.434Z,9.37
2018-01-23T12:59:28.682Z,6.07
2018-01-23T13:01:54.846Z,5.07
2018-01-23T13:04:21.050Z,6.70
2018-01-23T13:06:47.267Z,12.10
2018-01-23T13:09:13.461Z,7.70
2018-01-23T13:11:39.768Z,9.63
2018-01-23T13:14:05.911Z,8.73
2018-01-23T13:16:32.140Z,10.40
2018-01-23T13:18:58.343Z,12.00
2018-01-23T13:21:24.502Z,10.00
2018-01-23T13:23:50.696Z,8.73
2018-01-23T13:26:16.925Z,8.70
2018-01-23T13:28:43.166Z,9.47
2018-01-23T13:31:09.337Z,9.00
2018-01-23T13:33:35.587Z,8.07
2018-01-23T13:36:01.897Z,8.17
2018-01-23T13:38:28.171Z,9.90
2018-01-23T13:40:54.405Z,8.77
2018-01-23T13:43:20.605Z,5.17
2018-01-23T13:45:46.789Z,8.40
2018-01-23T13:48:13.078Z,5.53
2018-01-23T13:50:39.246Z,9.70
2018-01-23T13:53:06.270Z,9.43
2018-01-23T13:55:32.580Z,6.90
2018-01-23T13:57:58.804Z,8.20
2018-01-23T14:00:25.067Z,6.67
2018-01-23T14:02:51.238Z,8.50
2018-01-23T14:05:17.402Z,6.97
2018-01-23T14:07:43.669Z,7.60
2018-01-23T14:10:09.871Z,9.47
2018-01-23T14:12:36.102Z,8.90
2018-01-23T14:15:02.343Z,8.50
2018-01-23T14:17:28.585Z,9.73
2018-01-23T14:19:54.735Z,13.37
2018-01-23T14:22:20.905Z,5.23
2018-01-23T14:24:47.073Z,9.53
2018-01-23T14:27:13.319Z,7.77
2018-01-23T14:29:39.617Z,9.17
2018-01-23T14:32:05.874Z,9.30
2018-01-23T14:34:32.140Z,5.87
2018-01-23T14:36:58.414Z,8.07
2018-01-23T14:39:24.634Z,10.10
2018-01-23T14:41:50.978Z,8.00
2018-01-23T14:44:17.195Z,7.23
2018-01-23T14:46:43.459Z,7.70
2018-01-23T14:49:09.670Z,10.90
2018-01-23T14:51:35.903Z,8.40
2018-01-23T14:54:02.130Z,9.53
2018-01-23T14:56:28.364Z,12.93
2018-01-23T14:58:54.646Z,13.17
2018-01-23T15:01:20.900Z,10.13
2018-01-23T15:03:47.141Z,12.17
2018-01-23T15:06:14.177Z,8.07
2018-01-23T15:08:40.467Z,12.30
2018-01-23T15:11:06.722Z,14.73
2018-01-23T15:13:33.018Z,10.17
2018-01-23T15:15:59.272Z,8.60
2018-01-23T15:18:25.500Z,11.00
2018-01-23T15:20:51.648Z,12.20
2018-01-23T15:23:17.813Z,13.93
2018-01-23T15:25:44.033Z,13.63
2018-01-23T15:28:11.197Z,17.23
2018-01-23T15:30:37.349Z,19.33
2018-01-23T15:33:03.509Z,11.17
2018-01-23T15:35:29.759Z,13.57
2018-01-23T15:37:55.995Z,15.53
2018-01-23T15:40:22.174Z,14.13
2018-01-23T15:42:49.300Z,13.50
2018-01-23T15:45:15.503Z,12.87
2018-01-23T15:47:41.936Z,15.33
2018-01-23T15:50:08.114Z,16.63
2018-01-23T15:52:34.353Z,13.67
2018-01-23T15:55:00.539Z,9.83
2018-01-23T15:57:26.815Z,13.03
2018-01-23T15:59:53.015Z,16.27
2018-01-23T16:02:19.276Z,16.70
2018-01-23T16:04:45.464Z,12.97
2018-01-23T16:07:11.746Z,11.47
2018-01-23T16:09:38.027Z,12.33
2018-01-23T16:12:04.353Z,14.67
2018-01-23T16:14:30.534Z,13.27
2018-01-23T16:16:56.815Z,12.87
2018-01-23T16:19:22.974Z,14.20
2018-01-23T16:21:49.142Z,11.27
2018-01-23T16:24:15.361Z,12.73
2018-01-23T16:26:41.523Z,15.03
2018-01-23T16:29:07.745Z,12.33
2018-01-23T16:31:33.948Z,12.00
2018-01-23T16:34:00.214Z,10.47
2018-01-23T16:36:26.397Z,11.80
2018-01-23T16:38:52.666Z,13.23
2018-01-23T16:41:18.889Z,23.00
2018-01-23T16:43:45.955Z,13.47
2018-01-23T16:46:13.108Z,14.23
2018-01-23T16:48:39.569Z,13.07
2018-01-23T16:51:05.750Z,12.90
2018-01-23T16:53:31.961Z,13.73
2018-01-23T16:55:58.114Z,12.90
2018-01-23T16:58:24.489Z,16.97
2018-01-23T17:00:50.711Z,22.33
2018-01-23T17:03:16.873Z,22.07
2018-01-23T17:05:43.108Z,17.67
2018-01-23T17:08:10.161Z,24.20
2018-01-23T17:10:36.357Z,122.03
2018-01-23T17:13:05.862Z,26.43
2018-01-23T17:15:32.415Z,16.70
2018-01-23T17:18:02.795Z,20.30
2018-01-23T17:20:29.027Z,18.50
2018-01-23T17:22:55.400Z,15.83
2018-01-23T17:25:21.595Z,17.03
2018-01-23T17:27:47.897Z,19.70
2018-01-23T17:30:14.120Z,22.43
2018-01-23T17:32:40.301Z,19.30
2018-01-23T17:35:06.512Z,14.57
2018-01-23T17:37:32.761Z,16.13
2018-01-23T17:39:58.968Z,17.57
2018-01-23T17:42:25.190Z,16.27
2018-01-23T17:44:51.471Z,18.87
2018-01-23T17:47:17.732Z,18.20
2018-01-23T17:49:49.235Z,19.50
2018-01-23T17:52:15.831Z,25.47
2018-01-23T17:54:41.977Z,26.70
2018-01-23T17:57:08.175Z,24.10
2018-01-23T17:59:35.386Z,19.57
2018-01-23T18:02:01.618Z,18.10
2018-01-23T18:04:28.480Z,19.97
2018-01-23T18:06:54.795Z,19.97
2018-01-23T18:09:21.055Z,18.83
2018-01-23T18:11:47.207Z,19.87
2018-01-23T18:14:13.438Z,21.00
2018-01-23T18:16:39.693Z,19.03
2018-01-23T18:19:06.048Z,19.03
2018-01-23T18:21:32.265Z,18.13
2018-01-23T18:23:58.538Z,20.90
2018-01-23T18:26:24.686Z,19.47
2018-01-23T18:28:50.908Z,20.50
2018-01-23T18:31:17.120Z,22.23
2018-01-23T18:33:43.318Z,23.03
2018-01-23T18:36:09.489Z,23.17
2018-01-23T18:38:35.812Z,30.70
2018-01-23T18:41:01.998Z,24.43
2018-01-23T18:43:28.169Z,30.27
2018-01-23T18:45:55.037Z,22.63
2018-01-23T18:48:21.418Z,44.07
2018-01-23T18:50:47.568Z,31.73
2018-01-23T18:53:13.776Z,26.03
2018-01-23T18:55:39.975Z,29.47
2018-01-23T18:58:06.248Z,35.53
2018-01-23T19:00:32.414Z,37.63
2018-01-23T19:02:58.696Z,30.73
2018-01-23T19:05:24.922Z,42.73
2018-01-23T19:07:51.132Z,33.30
2018-01-23T19:10:17.393Z,38.07
2018-01-23T19:12:43.657Z,33.40
2018-01-23T19:15:09.842Z,30.97
2018-01-23T19:17:36.018Z,31.30
2018-01-23T19:20:02.259Z,35.17
2018-01-23T19:22:28.418Z,31.07
2018-01-23T19:24:54.586Z,29.53
2018-01-23T19:27:21.353Z,27.80
2018-01-23T19:29:47.667Z,29.93
2018-01-23T19:32:13.884Z,33.10
2018-01-23T19:34:40.188Z,41.20
2018-01-23T19:37:07.007Z,28.93
2018-01-23T19:39:33.293Z,30.83
2018-01-23T19:41:59.467Z,30.20
2018-01-23T19:44:25.701Z,31.67
2018-01-23T19:46:51.924Z,29.10
2018-01-23T19:49:18.207Z,32.10
2018-01-23T19:51:44.474Z,31.67
2018-01-23T19:54:10.742Z,30.03
2018-01-23T19:56:36.955Z,30.20
2018-01-23T19:59:03.231Z,31.17
2018-01-23T20:01:29.457Z,31.93
2018-01-23T20:03:55.640Z,33.23
2018-01-23T20:06:21.845Z,34.57
2018-01-23T20:08:48.127Z,29.07
2018-01-23T20:11:14.319Z,30.27
2018-01-23T20:13:40.590Z,29.57
2018-01-23T20:16:06.830Z,33.10
2018-01-23T20:18:33.115Z,30.27
2018-01-23T20:20:59.389Z,32.17
2018-01-23T20:23:25.586Z,30.30
2018-01-23T20:25:51.735Z,32.73
2018-01-23T20:28:17.956Z,31.07
2018-01-23T20:30:44.177Z,34.70
2018-01-23T20:33:10.386Z,35.40
2018-01-23T20:35:36.621Z,33.60
2018-01-23T20:38:02.863Z,35.17
2018-01-23T20:40:29.119Z,34.13
2018-01-23T20:42:55.334Z,35.07
2018-01-23T20:45:21.531Z,34.17
2018-01-23T20:47:47.783Z,33.50
2018-01-23T20:50:14.068Z,28.80
2018-01-23T20:52:40.253Z,30.27
2018-01-23T20:55:06.558Z,28.80
2018-01-23T20:57:32.768Z,27.87
2018-01-23T20:59:59.039Z,26.47
2018-01-23T21:02:25.179Z,23.37
2018-01-23T21:04:51.319Z,27.17
2018-01-23T21:07:17.577Z,25.03
2018-01-23T21:09:43.749Z,29.80
2018-01-23T21:12:09.978Z,27.60
2018-01-23T21:14:36.183Z,22.80
2018-01-23T21:17:05.021Z,22.50
2018-01-23T21:19:31.227Z,21.30
2018-01-23T21:21:57.418Z,17.20
2018-01-23T21:24:23.636Z,18.83
2018-01-23T21:26:49.771Z,16.00
2018-01-23T21:29:16.038Z,17.03
2018-01-23T21:31:42.254Z,16.23
2018-01-23T21:34:08.527Z,18.97
2018-01-23T21:36:34.741Z,20.53
2018-01-23T21:39:00.964Z,18.27
2018-01-23T21:41:27.115Z,18.90
2018-01-23T21:43:53.314Z,20.60
2018-01-23T21:46:19.478Z,19.27
2018-01-23T21:48:45.715Z,19.63
2018-01-23T21:51:11.852Z,18.70
2018-01-23T21:53:38.021Z,19.87
2018-01-23T21:56:04.321Z,19.23
2018-01-23T21:58:30.525Z,20.73
2018-01-23T22:00:56.756Z,23.30
2018-01-23T22:03:22.927Z,23.03
2018-01-23T22:05:49.071Z,22.97
2018-01-23T22:08:15.268Z,25.60
2018-01-23T22:10:41.537Z,20.13
2018-01-23T22:13:07.717Z,21.50
2018-01-23T22:15:33.874Z,22.50
2018-01-23T22:18:00.108Z,22.43
2018-01-23T22:20:26.557Z,22.13
2018-01-23T22:22:52.763Z,20.07
2018-01-23T22:25:18.918Z,18.57
2018-01-23T22:27:45.176Z,21.77
2018-01-23T22:30:11.455Z,18.67
2018-01-23T22:32:37.746Z,26.67
2018-01-23T22:35:03.965Z,25.07
2018-01-23T22:37:30.126Z,23.73
2018-01-23T22:39:56.340Z,23.17
2018-01-23T22:42:22.532Z,22.37
2018-01-23T22:44:50.289Z,17.00
2018-01-23T22:47:16.466Z,18.83
2018-01-23T22:49:42.666Z,21.90
2018-01-23T22:52:08.838Z,21.77
2018-01-23T22:54:35.039Z,17.40
2018-01-23T22:57:01.256Z,18.60
2018-01-23T22:59:27.484Z,17.33
2018-01-23T23:01:53.725Z,17.40
2018-01-23T23:04:19.952Z,15.53
2018-01-23T23:06:46.217Z,14.80
2018-01-23T23:09:12.372Z,14.60
2018-01-23T23:11:38.574Z,14.00
2018-01-23T23:14:04.803Z,14.90
2018-01-23T23:16:30.950Z,13.60
2018-01-23T23:18:57.185Z,13.17
2018-01-23T23:21:23.375Z,10.33
2018-01-23T23:23:49.580Z,15.20
2018-01-23T23:26:15.742Z,10.90
2018-01-23T23:28:41.962Z,11.23
2018-01-23T23:31:09.127Z,11.97
2018-01-23T23:33:35.331Z,11.67
2018-01-23T23:36:01.523Z,12.57
2018-01-23T23:38:27.674Z,11.97
2018-01-23T23:40:53.884Z,11.97
2018-01-23T23:43:20.205Z,13.03
2018-01-23T23:45:46.410Z,15.30
2018-01-23T23:48:12.594Z,20.67
2018-01-23T23:50:39.008Z,16.63
2018-01-23T23:53:05.220Z,13.70
2018-01-23T23:55:31.392Z,14.07
2018-01-23T23:57:57.625Z,14.60
